sensor_id;sensor_type;location;lat;lon;timestamp;P1;durP1;ratioP1;P2;durP2;ratioP2
15482;SDS011;7843;50.330;7.312;2022-08-04T00:00:24;5.25;;;2.17;;
15482;SDS011;7843;50.330;7.312;2022-08-04T00:05:29;4.28;;;2.00;;
15482;SDS011;7843;50.330;7.312;2022-08-04T00:08:21;4.37;;;2.57;;
15482;SDS011;7843;50.330;7.312;2022-08-04T00:11:07;3.88;;;1.70;;
15482;SDS011;7843;50.330;7.312;2022-08-04T00:13:36;3.90;;;2.20;;
15482;SDS011;7843;50.330;7.312;2022-08-04T00:16:06;2.10;;;1.60;;
15482;SDS011;7843;50.330;7.312;2022-08-04T00:19:09;3.47;;;2.00;;
15482;SDS011;7843;50.330;7.312;2022-08-04T00:21:34;3.53;;;1.90;;
15482;SDS011;7843;50.330;7.312;2022-08-04T00:24:03;3.53;;;2.00;;
15482;SDS011;7843;50.330;7.312;2022-08-04T00:26:32;4.60;;;2.15;;
15482;SDS011;7843;50.330;7.312;2022-08-04T00:28:59;3.15;;;1.80;;
15482;SDS011;7843;50.330;7.312;2022-08-04T00:31:26;2.88;;;2.00;;
15482;SDS011;7843;50.330;7.312;2022-08-04T00:33:54;3.35;;;2.20;;
15482;SDS011;7843;50.330;7.312;2022-08-04T00:36:21;4.22;;;2.30;;
15482;SDS011;7843;50.330;7.312;2022-08-04T00:38:48;2.90;;;1.98;;
15482;SDS011;7843;50.330;7.312;2022-08-04T00:41:25;2.92;;;1.95;;
15482;SDS011;7843;50.330;7.312;2022-08-04T00:44:08;1.95;;;1.75;;
15482;SDS011;7843;50.330;7.312;2022-08-04T00:47:04;2.80;;;1.85;;
15482;SDS011;7843;50.330;7.312;2022-08-04T00:52:32;4.15;;;2.20;;
15482;SDS011;7843;50.330;7.312;2022-08-04T01:00:22;4.63;;;1.85;;
15482;SDS011;7843;50.330;7.312;2022-08-04T01:13:59;4.30;;;2.20;;
15482;SDS011;7843;50.330;7.312;2022-08-04T01:16:40;3.22;;;2.05;;
15482;SDS011;7843;50.330;7.312;2022-08-04T01:20:20;6.03;;;2.00;;
15482;SDS011;7843;50.330;7.312;2022-08-04T01:22:26;5.90;;;2.20;;
15482;SDS011;7843;50.330;7.312;2022-08-04T01:25:11;5.00;;;2.20;;
15482;SDS011;7843;50.330;7.312;2022-08-04T01:31:11;3.53;;;2.10;;
15482;SDS011;7843;50.330;7.312;2022-08-04T01:34:00;4.38;;;2.20;;
15482;SDS011;7843;50.330;7.312;2022-08-04T01:36:32;3.50;;;2.00;;
15482;SDS011;7843;50.330;7.312;2022-08-04T01:39:00;2.40;;;2.20;;
15482;SDS011;7843;50.330;7.312;2022-08-04T01:41:48;3.55;;;2.30;;
15482;SDS011;7843;50.330;7.312;2022-08-04T01:44:17;3.42;;;1.95;;
15482;SDS011;7843;50.330;7.312;2022-08-04T01:46:45;3.97;;;2.10;;
15482;SDS011;7843;50.330;7.312;2022-08-04T01:49:15;3.50;;;2.00;;
15482;SDS011;7843;50.330;7.312;2022-08-04T01:51:42;3.60;;;2.00;;
15482;SDS011;7843;50.330;7.312;2022-08-04T01:54:10;3.38;;;1.88;;
15482;SDS011;7843;50.330;7.312;2022-08-04T01:56:41;2.67;;;2.05;;
15482;SDS011;7843;50.330;7.312;2022-08-04T01:59:08;5.32;;;2.25;;
15482;SDS011;7843;50.330;7.312;2022-08-04T02:01:37;2.40;;;2.15;;
15482;SDS011;7843;50.330;7.312;2022-08-04T02:04:04;4.70;;;2.60;;
15482;SDS011;7843;50.330;7.312;2022-08-04T02:06:45;6.05;;;2.20;;
15482;SDS011;7843;50.330;7.312;2022-08-04T02:12:04;4.30;;;2.28;;
15482;SDS011;7843;50.330;7.312;2022-08-04T02:14:55;3.53;;;2.50;;
15482;SDS011;7843;50.330;7.312;2022-08-04T02:17:29;3.20;;;2.50;;
15482;SDS011;7843;50.330;7.312;2022-08-04T02:20:08;6.13;;;2.58;;
15482;SDS011;7843;50.330;7.312;2022-08-04T02:22:50;3.55;;;2.65;;
15482;SDS011;7843;50.330;7.312;2022-08-04T02:25:24;5.53;;;2.55;;
15482;SDS011;7843;50.330;7.312;2022-08-04T02:33:37;5.20;;;2.60;;
15482;SDS011;7843;50.330;7.312;2022-08-04T02:36:09;4.78;;;2.75;;
15482;SDS011;7843;50.330;7.312;2022-08-04T02:38:50;5.28;;;2.78;;
15482;SDS011;7843;50.330;7.312;2022-08-04T02:41:20;5.23;;;2.60;;
15482;SDS011;7843;50.330;7.312;2022-08-04T02:43:49;4.10;;;2.67;;
15482;SDS011;7843;50.330;7.312;2022-08-04T02:46:18;5.15;;;2.55;;
15482;SDS011;7843;50.330;7.312;2022-08-04T02:48:46;4.65;;;2.70;;
15482;SDS011;7843;50.330;7.312;2022-08-04T02:51:16;4.35;;;3.13;;
15482;SDS011;7843;50.330;7.312;2022-08-04T02:53:45;4.68;;;2.80;;
15482;SDS011;7843;50.330;7.312;2022-08-04T02:56:14;3.97;;;2.80;;
15482;SDS011;7843;50.330;7.312;2022-08-04T02:58:48;4.55;;;2.80;;
15482;SDS011;7843;50.330;7.312;2022-08-04T03:01:19;3.00;;;2.53;;
15482;SDS011;7843;50.330;7.312;2022-08-04T03:10:00;3.63;;;2.53;;
15482;SDS011;7843;50.330;7.312;2022-08-04T03:29:59;5.65;;;2.40;;
15482;SDS011;7843;50.330;7.312;2022-08-04T03:35:02;3.47;;;2.10;;
15482;SDS011;7843;50.330;7.312;2022-08-04T03:37:38;5.55;;;2.35;;
15482;SDS011;7843;50.330;7.312;2022-08-04T03:52:26;3.03;;;2.20;;
15482;SDS011;7843;50.330;7.312;2022-08-04T04:01:56;4.03;;;2.30;;
15482;SDS011;7843;50.330;7.312;2022-08-04T04:04:36;3.22;;;2.10;;
15482;SDS011;7843;50.330;7.312;2022-08-04T04:13:04;5.88;;;2.53;;
15482;SDS011;7843;50.330;7.312;2022-08-04T04:26:39;5.97;;;2.70;;
15482;SDS011;7843;50.330;7.312;2022-08-04T04:32:26;2.80;;;2.50;;
15482;SDS011;7843;50.330;7.312;2022-08-04T04:51:36;3.10;;;2.10;;
15482;SDS011;7843;50.330;7.312;2022-08-04T04:54:31;3.03;;;2.30;;
15482;SDS011;7843;50.330;7.312;2022-08-04T04:57:20;3.55;;;2.50;;
15482;SDS011;7843;50.330;7.312;2022-08-04T04:59:51;3.58;;;2.25;;
15482;SDS011;7843;50.330;7.312;2022-08-04T05:11:05;3.85;;;2.38;;
15482;SDS011;7843;50.330;7.312;2022-08-04T05:13:56;4.80;;;2.80;;
15482;SDS011;7843;50.330;7.312;2022-08-04T05:22:09;3.47;;;2.55;;
15482;SDS011;7843;50.330;7.312;2022-08-04T05:24:41;3.85;;;2.38;;
15482;SDS011;7843;50.330;7.312;2022-08-04T05:27:13;5.13;;;2.60;;
15482;SDS011;7843;50.330;7.312;2022-08-04T05:29:51;3.38;;;2.50;;
15482;SDS011;7843;50.330;7.312;2022-08-04T05:32:23;3.72;;;2.40;;
15482;SDS011;7843;50.330;7.312;2022-08-04T05:35:04;4.60;;;2.45;;
15482;SDS011;7843;50.330;7.312;2022-08-04T05:37:35;4.00;;;2.50;;
15482;SDS011;7843;50.330;7.312;2022-08-04T05:40:04;4.10;;;2.80;;
15482;SDS011;7843;50.330;7.312;2022-08-04T05:42:35;5.85;;;2.30;;
15482;SDS011;7843;50.330;7.312;2022-08-04T05:45:05;2.97;;;2.33;;
15482;SDS011;7843;50.330;7.312;2022-08-04T05:47:34;4.35;;;2.40;;
15482;SDS011;7843;50.330;7.312;2022-08-04T05:50:02;5.28;;;2.60;;
15482;SDS011;7843;50.330;7.312;2022-08-04T05:52:32;4.38;;;2.55;;
15482;SDS011;7843;50.330;7.312;2022-08-04T05:55:01;5.77;;;2.47;;
15482;SDS011;7843;50.330;7.312;2022-08-04T05:57:29;5.00;;;2.65;;
15482;SDS011;7843;50.330;7.312;2022-08-04T05:59:57;6.17;;;2.70;;
15482;SDS011;7843;50.330;7.312;2022-08-04T06:02:29;4.13;;;2.70;;
15482;SDS011;7843;50.330;7.312;2022-08-04T06:04:57;6.10;;;2.63;;
15482;SDS011;7843;50.330;7.312;2022-08-04T06:07:25;4.97;;;2.80;;
15482;SDS011;7843;50.330;7.312;2022-08-04T06:09:53;3.95;;;2.97;;
15482;SDS011;7843;50.330;7.312;2022-08-04T06:12:20;5.88;;;2.90;;
15482;SDS011;7843;50.330;7.312;2022-08-04T06:14:52;6.45;;;2.72;;
15482;SDS011;7843;50.330;7.312;2022-08-04T06:17:25;3.93;;;2.50;;
15482;SDS011;7843;50.330;7.312;2022-08-04T06:20:06;5.30;;;2.80;;
15482;SDS011;7843;50.330;7.312;2022-08-04T06:22:38;5.75;;;2.83;;
15482;SDS011;7843;50.330;7.312;2022-08-04T06:25:07;5.88;;;2.42;;
15482;SDS011;7843;50.330;7.312;2022-08-04T06:27:37;4.63;;;2.45;;
15482;SDS011;7843;50.330;7.312;2022-08-04T06:30:05;4.40;;;2.10;;
15482;SDS011;7843;50.330;7.312;2022-08-04T06:32:36;6.53;;;2.75;;
15482;SDS011;7843;50.330;7.312;2022-08-04T06:35:16;12.00;;;3.13;;
15482;SDS011;7843;50.330;7.312;2022-08-04T06:37:45;4.55;;;2.97;;
15482;SDS011;7843;50.330;7.312;2022-08-04T06:40:13;8.80;;;3.03;;
15482;SDS011;7843;50.330;7.312;2022-08-04T06:42:45;4.63;;;3.00;;
15482;SDS011;7843;50.330;7.312;2022-08-04T06:45:14;9.70;;;2.50;;
15482;SDS011;7843;50.330;7.312;2022-08-04T06:47:42;7.70;;;2.35;;
15482;SDS011;7843;50.330;7.312;2022-08-04T06:50:10;5.75;;;2.55;;
15482;SDS011;7843;50.330;7.312;2022-08-04T06:52:38;5.22;;;2.33;;
15482;SDS011;7843;50.330;7.312;2022-08-04T06:55:05;9.02;;;2.22;;
15482;SDS011;7843;50.330;7.312;2022-08-04T06:57:33;4.25;;;2.20;;
15482;SDS011;7843;50.330;7.312;2022-08-04T07:00:08;5.60;;;2.30;;
15482;SDS011;7843;50.330;7.312;2022-08-04T07:02:40;3.58;;;2.05;;
15482;SDS011;7843;50.330;7.312;2022-08-04T07:05:10;3.97;;;1.95;;
15482;SDS011;7843;50.330;7.312;2022-08-04T07:07:37;5.50;;;2.30;;
15482;SDS011;7843;50.330;7.312;2022-08-04T07:10:06;6.90;;;2.20;;
15482;SDS011;7843;50.330;7.312;2022-08-04T07:12:34;6.07;;;2.10;;
15482;SDS011;7843;50.330;7.312;2022-08-04T07:15:05;4.47;;;2.15;;
15482;SDS011;7843;50.330;7.312;2022-08-04T07:17:36;4.82;;;2.38;;
15482;SDS011;7843;50.330;7.312;2022-08-04T07:20:05;5.15;;;2.30;;
15482;SDS011;7843;50.330;7.312;2022-08-04T07:22:32;3.15;;;1.90;;
15482;SDS011;7843;50.330;7.312;2022-08-04T07:25:00;5.90;;;2.10;;
15482;SDS011;7843;50.330;7.312;2022-08-04T07:27:28;3.67;;;1.98;;
15482;SDS011;7843;50.330;7.312;2022-08-04T07:29:54;4.60;;;2.10;;
15482;SDS011;7843;50.330;7.312;2022-08-04T07:32:21;3.75;;;1.90;;
15482;SDS011;7843;50.330;7.312;2022-08-04T07:34:49;7.18;;;2.00;;
15482;SDS011;7843;50.330;7.312;2022-08-04T07:37:17;4.20;;;1.90;;
15482;SDS011;7843;50.330;7.312;2022-08-04T07:39:44;2.50;;;2.00;;
15482;SDS011;7843;50.330;7.312;2022-08-04T07:42:12;5.00;;;1.90;;
15482;SDS011;7843;50.330;7.312;2022-08-04T07:44:39;4.75;;;2.13;;
15482;SDS011;7843;50.330;7.312;2022-08-04T07:47:06;3.38;;;1.90;;
15482;SDS011;7843;50.330;7.312;2022-08-04T07:49:34;4.60;;;1.90;;
15482;SDS011;7843;50.330;7.312;2022-08-04T07:52:01;4.15;;;1.80;;
15482;SDS011;7843;50.330;7.312;2022-08-04T07:54:29;5.65;;;1.83;;
15482;SDS011;7843;50.330;7.312;2022-08-04T07:56:56;8.27;;;1.87;;
15482;SDS011;7843;50.330;7.312;2022-08-04T07:59:23;6.20;;;2.00;;
15482;SDS011;7843;50.330;7.312;2022-08-04T08:01:50;4.57;;;1.90;;
15482;SDS011;7843;50.330;7.312;2022-08-04T08:04:18;5.15;;;1.80;;
15482;SDS011;7843;50.330;7.312;2022-08-04T08:06:45;5.32;;;1.75;;
15482;SDS011;7843;50.330;7.312;2022-08-04T08:09:13;3.78;;;2.00;;
15482;SDS011;7843;50.330;7.312;2022-08-04T08:11:41;5.50;;;1.80;;
15482;SDS011;7843;50.330;7.312;2022-08-04T08:14:12;3.87;;;1.90;;
15482;SDS011;7843;50.330;7.312;2022-08-04T08:16:40;5.07;;;1.73;;
15482;SDS011;7843;50.330;7.312;2022-08-04T08:19:07;4.50;;;1.52;;
15482;SDS011;7843;50.330;7.312;2022-08-04T08:21:34;5.60;;;2.20;;
15482;SDS011;7843;50.330;7.312;2022-08-04T08:24:01;4.57;;;2.10;;
15482;SDS011;7843;50.330;7.312;2022-08-04T08:26:30;2.97;;;1.83;;
15482;SDS011;7843;50.330;7.312;2022-08-04T08:28:57;5.90;;;1.77;;
15482;SDS011;7843;50.330;7.312;2022-08-04T08:31:24;3.67;;;1.80;;
15482;SDS011;7843;50.330;7.312;2022-08-04T08:33:52;4.55;;;1.63;;
15482;SDS011;7843;50.330;7.312;2022-08-04T08:36:38;7.93;;;2.10;;
15482;SDS011;7843;50.330;7.312;2022-08-04T08:39:15;4.53;;;1.70;;
15482;SDS011;7843;50.330;7.312;2022-08-04T08:41:54;5.03;;;1.55;;
15482;SDS011;7843;50.330;7.312;2022-08-04T08:44:51;6.40;;;1.90;;
15482;SDS011;7843;50.330;7.312;2022-08-04T08:48:00;4.10;;;1.88;;
15482;SDS011;7843;50.330;7.312;2022-08-04T08:56:37;7.47;;;1.98;;
15482;SDS011;7843;50.330;7.312;2022-08-04T09:02:05;5.45;;;1.77;;
15482;SDS011;7843;50.330;7.312;2022-08-04T09:08:08;4.10;;;1.65;;
15482;SDS011;7843;50.330;7.312;2022-08-04T09:10:44;5.87;;;1.60;;
15482;SDS011;7843;50.330;7.312;2022-08-04T09:13:32;3.93;;;1.80;;
15482;SDS011;7843;50.330;7.312;2022-08-04T09:18:53;5.60;;;1.70;;
15482;SDS011;7843;50.330;7.312;2022-08-04T09:27:53;7.03;;;1.75;;
15482;SDS011;7843;50.330;7.312;2022-08-04T09:30:31;5.65;;;1.50;;
15482;SDS011;7843;50.330;7.312;2022-08-04T09:33:09;2.53;;;1.60;;
15482;SDS011;7843;50.330;7.312;2022-08-04T09:35:56;2.78;;;1.40;;
15482;SDS011;7843;50.330;7.312;2022-08-04T09:38:48;2.20;;;1.50;;
15482;SDS011;7843;50.330;7.312;2022-08-04T09:41:35;5.90;;;1.93;;
15482;SDS011;7843;50.330;7.312;2022-08-04T09:44:27;3.95;;;1.35;;
15482;SDS011;7843;50.330;7.312;2022-08-04T09:49:54;4.18;;;1.38;;
15482;SDS011;7843;50.330;7.312;2022-08-04T09:52:48;3.15;;;1.48;;
15482;SDS011;7843;50.330;7.312;2022-08-04T09:58:10;2.75;;;1.40;;
15482;SDS011;7843;50.330;7.312;2022-08-04T10:00:48;5.68;;;1.50;;
15482;SDS011;7843;50.330;7.312;2022-08-04T10:03:20;6.15;;;1.20;;
15482;SDS011;7843;50.330;7.312;2022-08-04T10:11:52;7.40;;;1.20;;
15482;SDS011;7843;50.330;7.312;2022-08-04T10:14:52;1.50;;;0.60;;
15482;SDS011;7843;50.330;7.312;2022-08-04T10:28:29;7.65;;;1.00;;
15482;SDS011;7843;50.330;7.312;2022-08-04T10:30:58;1.40;;;0.80;;
15482;SDS011;7843;50.330;7.312;2022-08-04T10:33:40;2.30;;;0.80;;
15482;SDS011;7843;50.330;7.312;2022-08-04T10:36:15;2.08;;;0.80;;
15482;SDS011;7843;50.330;7.312;2022-08-04T10:41:29;1.63;;;0.60;;
15482;SDS011;7843;50.330;7.312;2022-08-04T10:44:24;1.52;;;0.60;;
15482;SDS011;7843;50.330;7.312;2022-08-04T10:47:03;2.42;;;0.82;;
15482;SDS011;7843;50.330;7.312;2022-08-04T10:49:37;2.55;;;0.80;;
15482;SDS011;7843;50.330;7.312;2022-08-04T10:52:11;1.30;;;0.82;;
15482;SDS011;7843;50.330;7.312;2022-08-04T10:54:48;1.63;;;0.88;;
15482;SDS011;7843;50.330;7.312;2022-08-04T10:57:29;2.15;;;1.00;;
15482;SDS011;7843;50.330;7.312;2022-08-04T11:02:40;2.05;;;0.80;;
15482;SDS011;7843;50.330;7.312;2022-08-04T11:08:02;2.53;;;0.70;;
15482;SDS011;7843;50.330;7.312;2022-08-04T11:10:42;1.83;;;0.60;;
15482;SDS011;7843;50.330;7.312;2022-08-04T11:13:15;1.40;;;0.60;;
15482;SDS011;7843;50.330;7.312;2022-08-04T11:15:47;1.10;;;0.70;;
15482;SDS011;7843;50.330;7.312;2022-08-04T11:18:34;2.03;;;0.60;;
15482;SDS011;7843;50.330;7.312;2022-08-04T11:21:13;2.00;;;0.70;;
15482;SDS011;7843;50.330;7.312;2022-08-04T11:24:04;1.60;;;0.75;;
15482;SDS011;7843;50.330;7.312;2022-08-04T11:26:50;1.83;;;0.70;;
15482;SDS011;7843;50.330;7.312;2022-08-04T11:29:40;4.55;;;0.80;;
15482;SDS011;7843;50.330;7.312;2022-08-04T11:32:19;2.05;;;0.70;;
15482;SDS011;7843;50.330;7.312;2022-08-04T11:34:55;1.80;;;0.90;;
15482;SDS011;7843;50.330;7.312;2022-08-04T11:37:35;1.23;;;0.73;;
15482;SDS011;7843;50.330;7.312;2022-08-04T11:40:12;0.85;;;0.60;;
15482;SDS011;7843;50.330;7.312;2022-08-04T11:42:54;1.38;;;0.63;;
15482;SDS011;7843;50.330;7.312;2022-08-04T11:45:31;2.53;;;0.70;;
15482;SDS011;7843;50.330;7.312;2022-08-04T11:48:52;1.33;;;0.60;;
15482;SDS011;7843;50.330;7.312;2022-08-04T11:50:57;1.55;;;0.93;;
15482;SDS011;7843;50.330;7.312;2022-08-04T11:53:30;2.40;;;0.70;;
15482;SDS011;7843;50.330;7.312;2022-08-04T11:56:01;1.60;;;0.80;;
15482;SDS011;7843;50.330;7.312;2022-08-04T11:58:29;2.30;;;0.90;;
15482;SDS011;7843;50.330;7.312;2022-08-04T12:06:31;1.13;;;0.82;;
15482;SDS011;7843;50.330;7.312;2022-08-04T12:14:46;5.90;;;0.90;;
15482;SDS011;7843;50.330;7.312;2022-08-04T12:17:21;1.02;;;0.60;;
15482;SDS011;7843;50.330;7.312;2022-08-04T12:19:55;0.93;;;0.70;;
15482;SDS011;7843;50.330;7.312;2022-08-04T12:22:26;1.20;;;0.70;;
15482;SDS011;7843;50.330;7.312;2022-08-04T12:25:07;1.85;;;0.70;;
15482;SDS011;7843;50.330;7.312;2022-08-04T12:30:20;1.05;;;0.80;;
15482;SDS011;7843;50.330;7.312;2022-08-04T12:32:51;2.17;;;0.90;;
15482;SDS011;7843;50.330;7.312;2022-08-04T12:38:11;1.00;;;0.88;;
15482;SDS011;7843;50.330;7.312;2022-08-04T12:40:40;1.00;;;0.80;;
15482;SDS011;7843;50.330;7.312;2022-08-04T12:45:54;2.03;;;0.70;;
15482;SDS011;7843;50.330;7.312;2022-08-04T12:48:27;1.77;;;0.80;;
15482;SDS011;7843;50.330;7.312;2022-08-04T12:50:56;1.90;;;0.77;;
15482;SDS011;7843;50.330;7.312;2022-08-04T12:53:29;1.33;;;0.65;;
15482;SDS011;7843;50.330;7.312;2022-08-04T12:55:59;2.22;;;0.77;;
15482;SDS011;7843;50.330;7.312;2022-08-04T12:58:28;2.00;;;0.90;;
15482;SDS011;7843;50.330;7.312;2022-08-04T13:01:02;3.10;;;0.80;;
15482;SDS011;7843;50.330;7.312;2022-08-04T13:03:38;3.65;;;0.95;;
15482;SDS011;7843;50.330;7.312;2022-08-04T13:06:09;3.70;;;1.27;;
15482;SDS011;7843;50.330;7.312;2022-08-04T13:08:41;1.98;;;0.73;;
15482;SDS011;7843;50.330;7.312;2022-08-04T13:11:11;2.47;;;0.90;;
15482;SDS011;7843;50.330;7.312;2022-08-04T13:13:41;2.00;;;0.80;;
15482;SDS011;7843;50.330;7.312;2022-08-04T13:16:09;2.63;;;1.13;;
15482;SDS011;7843;50.330;7.312;2022-08-04T13:18:39;2.17;;;0.90;;
15482;SDS011;7843;50.330;7.312;2022-08-04T13:21:12;2.30;;;1.00;;
15482;SDS011;7843;50.330;7.312;2022-08-04T13:23:42;2.80;;;0.88;;
15482;SDS011;7843;50.330;7.312;2022-08-04T13:26:13;2.15;;;1.00;;
15482;SDS011;7843;50.330;7.312;2022-08-04T13:28:42;4.32;;;0.90;;
15482;SDS011;7843;50.330;7.312;2022-08-04T13:31:12;2.97;;;1.15;;
15482;SDS011;7843;50.330;7.312;2022-08-04T13:33:42;3.50;;;0.90;;
15482;SDS011;7843;50.330;7.312;2022-08-04T13:36:11;25.48;;;2.10;;
15482;SDS011;7843;50.330;7.312;2022-08-04T13:38:47;2.20;;;0.80;;
15482;SDS011;7843;50.330;7.312;2022-08-04T13:41:16;2.78;;;0.80;;
15482;SDS011;7843;50.330;7.312;2022-08-04T13:43:49;5.47;;;1.08;;
15482;SDS011;7843;50.330;7.312;2022-08-04T13:46:27;2.85;;;1.00;;
15482;SDS011;7843;50.330;7.312;2022-08-04T13:48:56;2.40;;;0.80;;
15482;SDS011;7843;50.330;7.312;2022-08-04T13:51:59;3.25;;;1.00;;
15482;SDS011;7843;50.330;7.312;2022-08-04T13:54:40;2.25;;;0.90;;
15482;SDS011;7843;50.330;7.312;2022-08-04T13:57:10;3.40;;;1.00;;
15482;SDS011;7843;50.330;7.312;2022-08-04T13:59:44;5.87;;;1.10;;
15482;SDS011;7843;50.330;7.312;2022-08-04T14:02:22;2.70;;;1.10;;
15482;SDS011;7843;50.330;7.312;2022-08-04T14:04:53;2.50;;;0.97;;
15482;SDS011;7843;50.330;7.312;2022-08-04T14:07:23;4.35;;;1.05;;
15482;SDS011;7843;50.330;7.312;2022-08-04T14:09:51;2.15;;;1.00;;
15482;SDS011;7843;50.330;7.312;2022-08-04T14:12:18;10.83;;;1.27;;
15482;SDS011;7843;50.330;7.312;2022-08-04T14:14:47;4.95;;;1.45;;
15482;SDS011;7843;50.330;7.312;2022-08-04T14:17:17;2.77;;;1.50;;
15482;SDS011;7843;50.330;7.312;2022-08-04T14:24:55;5.93;;;1.43;;
15482;SDS011;7843;50.330;7.312;2022-08-04T14:27:46;7.53;;;1.75;;
15482;SDS011;7843;50.330;7.312;2022-08-04T14:30:26;7.60;;;1.50;;
15482;SDS011;7843;50.330;7.312;2022-08-04T14:32:57;11.48;;;1.42;;
15482;SDS011;7843;50.330;7.312;2022-08-04T14:35:27;7.88;;;1.42;;
15482;SDS011;7843;50.330;7.312;2022-08-04T14:38:00;14.07;;;1.73;;
15482;SDS011;7843;50.330;7.312;2022-08-04T14:40:30;9.23;;;1.60;;
15482;SDS011;7843;50.330;7.312;2022-08-04T14:42:58;9.88;;;1.50;;
15482;SDS011;7843;50.330;7.312;2022-08-04T14:45:30;5.68;;;1.63;;
15482;SDS011;7843;50.330;7.312;2022-08-04T14:48:05;6.95;;;1.70;;
15482;SDS011;7843;50.330;7.312;2022-08-04T14:50:35;7.50;;;1.80;;
15482;SDS011;7843;50.330;7.312;2022-08-04T14:53:10;5.32;;;1.48;;
15482;SDS011;7843;50.330;7.312;2022-08-04T14:55:42;6.22;;;1.48;;
15482;SDS011;7843;50.330;7.312;2022-08-04T14:58:20;5.25;;;1.60;;
15482;SDS011;7843;50.330;7.312;2022-08-04T15:00:55;6.45;;;1.50;;
15482;SDS011;7843;50.330;7.312;2022-08-04T15:03:24;9.65;;;2.00;;
15482;SDS011;7843;50.330;7.312;2022-08-04T15:05:54;12.43;;;1.63;;
15482;SDS011;7843;50.330;7.312;2022-08-04T15:08:22;8.35;;;1.98;;
15482;SDS011;7843;50.330;7.312;2022-08-04T15:10:49;8.98;;;1.80;;
15482;SDS011;7843;50.330;7.312;2022-08-04T15:13:17;6.53;;;1.60;;
15482;SDS011;7843;50.330;7.312;2022-08-04T15:15:44;8.05;;;1.65;;
15482;SDS011;7843;50.330;7.312;2022-08-04T15:18:12;6.15;;;1.67;;
15482;SDS011;7843;50.330;7.312;2022-08-04T15:20:39;5.78;;;1.50;;
15482;SDS011;7843;50.330;7.312;2022-08-04T15:23:08;7.23;;;1.57;;
15482;SDS011;7843;50.330;7.312;2022-08-04T15:25:40;5.10;;;1.73;;
15482;SDS011;7843;50.330;7.312;2022-08-04T15:28:12;7.37;;;1.37;;
15482;SDS011;7843;50.330;7.312;2022-08-04T15:30:41;6.07;;;1.55;;
15482;SDS011;7843;50.330;7.312;2022-08-04T15:33:10;4.63;;;1.20;;
15482;SDS011;7843;50.330;7.312;2022-08-04T15:35:41;6.53;;;1.30;;
15482;SDS011;7843;50.330;7.312;2022-08-04T15:38:13;2.90;;;1.23;;
15482;SDS011;7843;50.330;7.312;2022-08-04T15:40:51;3.75;;;1.40;;
15482;SDS011;7843;50.330;7.312;2022-08-04T15:43:42;9.23;;;1.50;;
15482;SDS011;7843;50.330;7.312;2022-08-04T15:49:18;3.50;;;1.20;;
15482;SDS011;7843;50.330;7.312;2022-08-04T15:51:46;1.88;;;1.15;;
15482;SDS011;7843;50.330;7.312;2022-08-04T15:54:25;6.05;;;1.35;;
15482;SDS011;7843;50.330;7.312;2022-08-04T15:56:52;2.93;;;1.20;;
15482;SDS011;7843;50.330;7.312;2022-08-04T15:59:53;6.50;;;1.30;;
15482;SDS011;7843;50.330;7.312;2022-08-04T16:05:27;5.30;;;1.30;;
15482;SDS011;7843;50.330;7.312;2022-08-04T16:07:59;3.25;;;1.25;;
15482;SDS011;7843;50.330;7.312;2022-08-04T16:10:34;3.88;;;1.08;;
15482;SDS011;7843;50.330;7.312;2022-08-04T16:13:06;4.05;;;1.20;;
15482;SDS011;7843;50.330;7.312;2022-08-04T16:15:47;4.78;;;1.38;;
15482;SDS011;7843;50.330;7.312;2022-08-04T16:21:05;5.90;;;1.50;;
15482;SDS011;7843;50.330;7.312;2022-08-04T16:23:46;4.10;;;1.50;;
15482;SDS011;7843;50.330;7.312;2022-08-04T16:29:22;5.70;;;1.40;;
15482;SDS011;7843;50.330;7.312;2022-08-04T16:34:34;5.25;;;1.30;;
15482;SDS011;7843;50.330;7.312;2022-08-04T16:37:06;3.63;;;1.20;;
15482;SDS011;7843;50.330;7.312;2022-08-04T16:39:35;3.15;;;1.23;;
15482;SDS011;7843;50.330;7.312;2022-08-04T16:50:13;4.07;;;1.30;;
15482;SDS011;7843;50.330;7.312;2022-08-04T16:52:41;5.15;;;1.60;;
15482;SDS011;7843;50.330;7.312;2022-08-04T16:55:16;6.85;;;1.77;;
15482;SDS011;7843;50.330;7.312;2022-08-04T16:57:48;14.98;;;1.90;;
15482;SDS011;7843;50.330;7.312;2022-08-04T17:00:17;4.68;;;1.70;;
15482;SDS011;7843;50.330;7.312;2022-08-04T17:02:53;9.02;;;1.98;;
15482;SDS011;7843;50.330;7.312;2022-08-04T17:05:23;6.22;;;1.40;;
15482;SDS011;7843;50.330;7.312;2022-08-04T17:07:52;5.45;;;1.65;;
15482;SDS011;7843;50.330;7.312;2022-08-04T17:10:36;7.40;;;1.70;;
15482;SDS011;7843;50.330;7.312;2022-08-04T17:13:23;7.63;;;1.65;;
15482;SDS011;7843;50.330;7.312;2022-08-04T17:15:58;6.78;;;1.60;;
15482;SDS011;7843;50.330;7.312;2022-08-04T17:18:30;6.72;;;1.75;;
15482;SDS011;7843;50.330;7.312;2022-08-04T17:21:01;4.90;;;1.60;;
15482;SDS011;7843;50.330;7.312;2022-08-04T17:26:04;7.80;;;1.70;;
15482;SDS011;7843;50.330;7.312;2022-08-04T17:28:34;4.57;;;1.55;;
15482;SDS011;7843;50.330;7.312;2022-08-04T17:31:05;6.60;;;2.15;;
15482;SDS011;7843;50.330;7.312;2022-08-04T17:33:38;6.13;;;1.60;;
15482;SDS011;7843;50.330;7.312;2022-08-04T17:36:09;5.28;;;1.67;;
15482;SDS011;7843;50.330;7.312;2022-08-04T17:38:38;4.32;;;1.95;;
15482;SDS011;7843;50.330;7.312;2022-08-04T17:41:07;6.43;;;1.70;;
15482;SDS011;7843;50.330;7.312;2022-08-04T17:43:37;3.33;;;1.57;;
15482;SDS011;7843;50.330;7.312;2022-08-04T17:51:41;4.13;;;1.80;;
15482;SDS011;7843;50.330;7.312;2022-08-04T17:54:18;4.13;;;1.52;;
15482;SDS011;7843;50.330;7.312;2022-08-04T17:56:49;4.68;;;1.83;;
15482;SDS011;7843;50.330;7.312;2022-08-04T18:01:50;7.72;;;2.13;;
15482;SDS011;7843;50.330;7.312;2022-08-04T18:06:56;3.90;;;1.30;;
15482;SDS011;7843;50.330;7.312;2022-08-04T18:09:37;4.15;;;1.55;;
15482;SDS011;7843;50.330;7.312;2022-08-04T18:12:21;6.13;;;1.67;;
15482;SDS011;7843;50.330;7.312;2022-08-04T18:14:53;2.58;;;1.58;;
15482;SDS011;7843;50.330;7.312;2022-08-04T18:17:42;2.63;;;1.57;;
15482;SDS011;7843;50.330;7.312;2022-08-04T18:20:12;4.40;;;1.50;;
15482;SDS011;7843;50.330;7.312;2022-08-04T18:22:40;5.30;;;1.50;;
15482;SDS011;7843;50.330;7.312;2022-08-04T18:25:08;3.95;;;1.55;;
15482;SDS011;7843;50.330;7.312;2022-08-04T18:27:45;29.55;;;3.20;;
15482;SDS011;7843;50.330;7.312;2022-08-04T18:30:12;4.60;;;1.80;;
15482;SDS011;7843;50.330;7.312;2022-08-04T18:32:38;5.25;;;1.60;;
15482;SDS011;7843;50.330;7.312;2022-08-04T18:35:12;3.40;;;1.60;;
15482;SDS011;7843;50.330;7.312;2022-08-04T18:37:40;5.60;;;1.55;;
15482;SDS011;7843;50.330;7.312;2022-08-04T18:40:08;4.77;;;1.57;;
15482;SDS011;7843;50.330;7.312;2022-08-04T18:42:36;4.30;;;1.70;;
15482;SDS011;7843;50.330;7.312;2022-08-04T18:45:03;4.20;;;1.60;;
15482;SDS011;7843;50.330;7.312;2022-08-04T18:47:30;3.10;;;1.60;;
15482;SDS011;7843;50.330;7.312;2022-08-04T18:49:57;2.92;;;1.85;;
15482;SDS011;7843;50.330;7.312;2022-08-04T18:52:24;2.25;;;1.50;;
15482;SDS011;7843;50.330;7.312;2022-08-04T18:54:51;2.80;;;1.40;;
15482;SDS011;7843;50.330;7.312;2022-08-04T18:57:21;3.17;;;1.73;;
15482;SDS011;7843;50.330;7.312;2022-08-04T18:59:50;3.15;;;1.50;;
15482;SDS011;7843;50.330;7.312;2022-08-04T19:02:17;2.85;;;1.48;;
15482;SDS011;7843;50.330;7.312;2022-08-04T19:04:44;3.00;;;1.40;;
15482;SDS011;7843;50.330;7.312;2022-08-04T19:07:11;2.25;;;1.42;;
15482;SDS011;7843;50.330;7.312;2022-08-04T19:09:40;4.57;;;1.65;;
15482;SDS011;7843;50.330;7.312;2022-08-04T19:12:08;2.97;;;1.67;;
15482;SDS011;7843;50.330;7.312;2022-08-04T19:14:35;5.70;;;1.98;;
15482;SDS011;7843;50.330;7.312;2022-08-04T19:17:02;3.55;;;1.90;;
15482;SDS011;7843;50.330;7.312;2022-08-04T19:19:29;4.45;;;1.90;;
15482;SDS011;7843;50.330;7.312;2022-08-04T19:21:55;6.93;;;1.90;;
15482;SDS011;7843;50.330;7.312;2022-08-04T19:24:22;5.18;;;2.00;;
15482;SDS011;7843;50.330;7.312;2022-08-04T19:26:49;3.20;;;1.55;;
15482;SDS011;7843;50.330;7.312;2022-08-04T19:29:16;13.65;;;1.95;;
15482;SDS011;7843;50.330;7.312;2022-08-04T19:31:43;5.15;;;2.00;;
15482;SDS011;7843;50.330;7.312;2022-08-04T19:34:10;3.30;;;1.95;;
15482;SDS011;7843;50.330;7.312;2022-08-04T19:36:37;3.97;;;1.80;;
15482;SDS011;7843;50.330;7.312;2022-08-04T19:39:05;6.40;;;2.10;;